createdAt,value
2022-12-16T00:00:40.073Z,65.25
2022-12-16T00:03:07.712Z,64.26
2022-12-16T00:05:42.668Z,66.55
2022-12-16T00:08:11.772Z,66.84
2022-12-16T00:10:53.042Z,66.30
2022-12-16T00:13:22.390Z,66.43
2022-12-16T00:15:49.611Z,66.88
2022-12-16T00:18:20.028Z,66.34
2022-12-16T00:20:47.924Z,67.59
2022-12-16T00:23:15.090Z,67.37
2022-12-16T00:25:43.165Z,66.08
2022-12-16T00:28:10.981Z,66.38
2022-12-16T00:30:38.131Z,64.22
2022-12-16T00:33:05.549Z,64.96
2022-12-16T00:35:33.210Z,63.14
2022-12-16T00:38:00.420Z,63.58
2022-12-16T00:40:27.736Z,63.77
2022-12-16T00:42:55.188Z,64.87
2022-12-16T00:45:22.439Z,65.16
2022-12-16T00:47:49.802Z,65.74
2022-12-16T00:50:17.572Z,64.33
2022-12-16T00:52:44.769Z,63.87
2022-12-16T00:55:12.685Z,65.45
2022-12-16T00:57:40.328Z,62.58
2022-12-16T01:00:09.280Z,64.14
2022-12-16T01:02:36.460Z,64.49
2022-12-16T01:05:04.081Z,63.65
2022-12-16T01:07:31.208Z,64.47
2022-12-16T01:09:58.347Z,63.64
2022-12-16T01:12:25.771Z,64.18
2022-12-16T01:14:52.936Z,65.55
2022-12-16T01:17:20.859Z,69.12
2022-12-16T01:19:48.294Z,69.47
2022-12-16T01:22:15.408Z,68.76
2022-12-16T01:24:43.759Z,71.53
2022-12-16T01:27:11.443Z,69.08
2022-12-16T01:29:38.593Z,70.35
2022-12-16T01:32:06.504Z,68.54
2022-12-16T01:34:33.982Z,69.37
2022-12-16T01:37:01.128Z,70.67
2022-12-16T01:39:30.209Z,71.10
2022-12-16T01:41:57.637Z,70.27
2022-12-16T01:44:26.273Z,70.39
2022-12-16T01:46:57.716Z,71.94
2022-12-16T01:49:29.123Z,72.02
2022-12-16T01:51:57.606Z,72.07
2022-12-16T01:54:35.551Z,73.17
2022-12-16T01:57:06.959Z,73.41
2022-12-16T01:59:34.371Z,73.68
2022-12-16T02:02:01.614Z,71.71
2022-12-16T02:04:29.210Z,71.31
2022-12-16T02:06:56.783Z,70.08
2022-12-16T02:09:23.893Z,72.53
2022-12-16T02:11:53.787Z,72.57
2022-12-16T02:14:41.597Z,73.47
2022-12-16T02:17:16.943Z,73.47
2022-12-16T02:19:44.378Z,74.46
2022-12-16T02:22:25.971Z,75.55
2022-12-16T02:25:12.189Z,72.61
2022-12-16T02:27:57.909Z,72.13
2022-12-16T02:30:39.210Z,71.83
2022-12-16T02:33:09.206Z,72.64
2022-12-16T02:35:40.348Z,72.62
2022-12-16T02:38:12.237Z,74.73
2022-12-16T02:40:39.628Z,72.94
2022-12-16T02:43:11.587Z,72.58
2022-12-16T02:45:38.797Z,71.07
2022-12-16T02:48:06.232Z,72.04
2022-12-16T02:50:35.265Z,70.80
2022-12-16T02:53:02.464Z,72.40
2022-12-16T02:55:33.247Z,72.96
2022-12-16T02:58:19.263Z,71.20
2022-12-16T03:00:50.039Z,70.55
2022-12-16T03:03:21.263Z,72.22
2022-12-16T03:05:49.213Z,72.03
2022-12-16T03:08:21.326Z,73.77
2022-12-16T03:10:53.233Z,73.68
2022-12-16T03:13:22.759Z,74.45
2022-12-16T03:15:50.267Z,74.15
2022-12-16T03:18:17.501Z,75.54
2022-12-16T03:20:50.343Z,75.89
2022-12-16T03:23:19.940Z,76.20
2022-12-16T03:25:47.707Z,73.73
2022-12-16T03:28:17.980Z,74.80
2022-12-16T03:30:46.273Z,74.68
2022-12-16T03:33:19.268Z,73.64
2022-12-16T03:35:50.896Z,74.29
2022-12-16T03:38:18.027Z,73.14
2022-12-16T03:40:45.191Z,72.93
2022-12-16T03:43:14.853Z,74.26
2022-12-16T03:45:42.970Z,75.33
2022-12-16T03:48:10.625Z,75.47
2022-12-16T03:50:38.692Z,74.59
2022-12-16T03:53:06.111Z,72.92
2022-12-16T03:55:33.258Z,73.16
2022-12-16T03:58:00.669Z,71.96
2022-12-16T04:00:27.874Z,72.85
2022-12-16T04:02:55.458Z,72.08
2022-12-16T04:05:22.913Z,71.31
2022-12-16T04:07:50.127Z,71.84
2022-12-16T04:10:37.631Z,71.40
2022-12-16T04:13:23.611Z,71.48
2022-12-16T04:16:09.667Z,70.01
2022-12-16T04:18:55.297Z,69.57
2022-12-16T04:21:41.502Z,71.01
2022-12-16T04:24:20.987Z,71.64
2022-12-16T04:27:11.892Z,72.44
2022-12-16T04:30:01.261Z,73.91
2022-12-16T04:32:48.799Z,69.09
2022-12-16T04:35:34.778Z,70.94
2022-12-16T04:38:21.087Z,68.41
2022-12-16T04:41:06.687Z,66.83
2022-12-16T04:43:53.023Z,66.33
2022-12-16T04:46:38.972Z,63.54
2022-12-16T04:49:25.195Z,61.71
2022-12-16T04:52:10.893Z,64.84
2022-12-16T04:54:56.936Z,68.11
2022-12-16T04:57:42.817Z,68.31
2022-12-16T05:00:28.945Z,64.52
2022-12-16T05:03:15.338Z,66.02
2022-12-16T05:06:01.190Z,68.70
2022-12-16T05:08:46.900Z,68.89
2022-12-16T05:11:32.983Z,69.22
2022-12-16T05:14:18.950Z,66.79
2022-12-16T05:17:05.144Z,71.50
2022-12-16T05:19:50.816Z,69.02
2022-12-16T05:22:36.926Z,72.63
2022-12-16T05:25:23.114Z,71.95
2022-12-16T05:28:09.997Z,70.86
2022-12-16T05:30:56.408Z,68.91
2022-12-16T05:33:42.558Z,70.32
2022-12-16T05:36:28.483Z,70.04
2022-12-16T05:39:14.848Z,71.84
2022-12-16T05:42:00.436Z,72.77
2022-12-16T05:44:46.660Z,72.93
2022-12-16T05:47:35.352Z,72.20
2022-12-16T05:50:26.313Z,70.14
2022-12-16T05:53:26.652Z,70.23
2022-12-16T05:56:12.870Z,68.31
2022-12-16T05:58:58.724Z,69.79
2022-12-16T06:01:44.651Z,67.98
2022-12-16T06:04:30.978Z,67.50
2022-12-16T06:07:16.769Z,69.62
2022-12-16T06:10:02.876Z,67.89
2022-12-16T06:12:48.902Z,70.11
2022-12-16T06:15:35.056Z,69.25
2022-12-16T06:18:20.923Z,69.98
2022-12-16T06:21:07.003Z,71.12
2022-12-16T06:23:52.920Z,68.96
2022-12-16T06:26:38.703Z,68.76
2022-12-16T06:29:24.497Z,67.82
2022-12-16T06:32:10.791Z,65.31
2022-12-16T06:34:56.820Z,66.57
2022-12-16T06:37:42.909Z,68.24
2022-12-16T06:40:29.451Z,65.71
2022-12-16T06:43:15.729Z,63.36
2022-12-16T06:46:01.790Z,65.37
2022-12-16T06:48:47.918Z,67.45
2022-12-16T06:51:50.338Z,64.68
2022-12-16T06:54:36.147Z,66.96
2022-12-16T06:57:21.918Z,67.58
2022-12-16T07:00:08.028Z,64.42
2022-12-16T07:02:54.517Z,61.37
2022-12-16T07:05:40.570Z,62.50
2022-12-16T07:08:26.426Z,60.50
2022-12-16T07:11:17.237Z,58.99
2022-12-16T07:14:03.334Z,63.23
2022-12-16T07:16:49.483Z,60.81
2022-12-16T07:19:35.495Z,61.54
2022-12-16T07:22:21.569Z,61.06
2022-12-16T07:25:07.370Z,62.06
2022-12-16T07:27:53.603Z,61.85
2022-12-16T07:30:39.195Z,62.63
2022-12-16T07:33:25.045Z,64.07
2022-12-16T07:36:10.937Z,62.00
2022-12-16T07:38:56.887Z,64.26
2022-12-16T07:41:42.779Z,63.01
2022-12-16T07:44:29.242Z,60.03
2022-12-16T07:47:15.086Z,63.03
2022-12-16T07:50:01.090Z,61.93
2022-12-16T07:52:46.999Z,60.62
2022-12-16T07:55:33.292Z,58.24
2022-12-16T07:58:18.955Z,59.79
2022-12-16T08:01:09.443Z,61.37
2022-12-16T08:03:56.102Z,59.17
2022-12-16T08:06:41.995Z,58.18
2022-12-16T08:09:28.500Z,57.25
2022-12-16T08:12:14.094Z,56.05
2022-12-16T08:15:00.488Z,56.48
2022-12-16T08:17:46.331Z,58.67
2022-12-16T08:20:32.187Z,58.90
2022-12-16T08:23:18.276Z,58.33
2022-12-16T08:26:04.222Z,60.10
2022-12-16T08:28:49.888Z,56.11
2022-12-16T08:31:36.209Z,56.60
2022-12-16T08:34:22.037Z,62.43
2022-12-16T08:37:08.204Z,61.04
2022-12-16T08:43:00.667Z,62.21
2022-12-16T08:45:46.857Z,60.62
2022-12-16T08:48:33.112Z,60.18
2022-12-16T08:51:22.354Z,60.33
2022-12-16T08:54:08.251Z,60.52
2022-12-16T08:56:54.232Z,58.32
2022-12-16T08:59:41.774Z,57.35
2022-12-16T09:02:29.296Z,58.60
2022-12-16T09:05:15.915Z,57.35
2022-12-16T09:08:01.582Z,56.35
2022-12-16T09:10:47.495Z,55.93
2022-12-16T09:13:34.376Z,54.57
2022-12-16T09:16:20.702Z,55.37
2022-12-16T09:19:06.414Z,55.24
2022-12-16T09:21:52.624Z,54.03
2022-12-16T09:24:40.639Z,52.99
2022-12-16T09:27:26.915Z,53.10
2022-12-16T09:30:12.985Z,52.32
2022-12-16T09:33:02.536Z,52.30
2022-12-16T09:35:48.402Z,52.98
2022-12-16T09:38:34.712Z,53.03
2022-12-16T09:41:43.117Z,52.29
2022-12-16T09:44:35.156Z,52.51
2022-12-16T09:47:24.259Z,51.94
2022-12-16T09:50:10.827Z,52.56
2022-12-16T09:53:00.823Z,53.53
2022-12-16T09:55:51.539Z,52.96
2022-12-16T09:58:37.455Z,54.65
2022-12-16T10:01:23.725Z,53.50
2022-12-16T10:04:10.052Z,53.75
2022-12-16T10:07:10.220Z,52.68
2022-12-16T10:10:03.213Z,53.50
2022-12-16T10:12:51.678Z,52.90
2022-12-16T10:16:01.956Z,54.67
2022-12-16T10:19:11.191Z,56.33
2022-12-16T10:22:04.761Z,54.03
2022-12-16T10:25:00.353Z,54.73
2022-12-16T10:27:53.064Z,54.79
2022-12-16T10:30:39.152Z,53.64
2022-12-16T10:33:26.870Z,54.63
2022-12-16T10:36:12.860Z,53.43
2022-12-16T10:39:03.148Z,57.74
2022-12-16T10:41:51.606Z,58.46
2022-12-16T10:44:55.774Z,55.37
2022-12-16T10:47:41.407Z,57.13
2022-12-16T10:50:31.170Z,54.65
2022-12-16T10:53:46.188Z,56.03
2022-12-16T10:56:35.094Z,56.31
2022-12-16T10:59:22.396Z,59.51
2022-12-16T11:02:18.997Z,56.66
2022-12-16T11:05:05.343Z,57.19
2022-12-16T11:08:04.142Z,55.19
2022-12-16T11:10:53.010Z,59.04
2022-12-16T11:13:42.034Z,56.73
2022-12-16T11:16:44.642Z,56.35
2022-12-16T11:19:41.920Z,56.73
2022-12-16T11:22:34.112Z,56.26
2022-12-16T11:25:29.396Z,55.25
2022-12-16T11:28:25.530Z,56.31
2022-12-16T11:31:12.206Z,56.26
2022-12-16T11:33:58.391Z,60.52
2022-12-16T11:36:44.595Z,61.06
2022-12-16T11:39:32.505Z,58.49
2022-12-16T11:42:19.789Z,57.88
2022-12-16T11:45:10.025Z,55.82
2022-12-16T11:47:56.596Z,54.71
2022-12-16T11:50:42.919Z,55.75
2022-12-16T11:53:48.191Z,55.65
2022-12-16T11:56:35.231Z,56.21
2022-12-16T11:59:22.977Z,57.06
2022-12-16T12:02:16.771Z,55.49
2022-12-16T12:05:03.041Z,53.03
2022-12-16T12:07:55.446Z,56.30
2022-12-16T12:10:41.933Z,56.72
2022-12-16T12:13:47.256Z,56.52
2022-12-16T12:16:59.641Z,55.50
2022-12-16T12:20:08.521Z,59.35
2022-12-16T12:22:55.909Z,59.17
2022-12-16T12:25:45.107Z,60.82
2022-12-16T12:28:36.086Z,61.14
2022-12-16T12:31:28.356Z,60.28
2022-12-16T12:34:14.698Z,59.87
2022-12-16T12:37:01.213Z,59.20
2022-12-16T12:40:02.712Z,61.75
2022-12-16T12:42:54.931Z,62.44
2022-12-16T12:45:46.686Z,62.83
2022-12-16T12:48:40.695Z,62.01
2022-12-16T12:51:53.481Z,58.92
2022-12-16T12:54:51.433Z,59.49
2022-12-16T12:57:39.511Z,58.31
2022-12-16T13:00:28.547Z,56.74
2022-12-16T13:03:34.053Z,57.46
2022-12-16T13:06:20.378Z,57.21
2022-12-16T13:09:09.621Z,56.64
2022-12-16T13:11:56.017Z,54.93
2022-12-16T13:14:51.811Z,54.00
2022-12-16T13:17:39.865Z,57.99
2022-12-16T13:20:44.833Z,55.71
2022-12-16T13:23:49.720Z,55.24
2022-12-16T13:26:36.418Z,58.63
2022-12-16T13:29:48.681Z,58.19
2022-12-16T13:32:39.197Z,56.32
2022-12-16T13:35:28.324Z,55.41
2022-12-16T13:38:14.700Z,55.95
2022-12-16T13:41:08.378Z,55.43
2022-12-16T13:44:03.676Z,54.78
2022-12-16T13:47:01.906Z,53.08
2022-12-16T13:49:54.179Z,52.20
2022-12-16T13:52:59.042Z,51.22
2022-12-16T13:55:48.474Z,51.80
2022-12-16T13:58:40.401Z,50.47
2022-12-16T14:01:30.827Z,52.35
2022-12-16T14:04:17.115Z,56.05
2022-12-16T14:07:03.016Z,55.98
2022-12-16T14:09:49.121Z,54.70
2022-12-16T14:12:49.242Z,56.32
2022-12-16T14:15:43.050Z,54.99
2022-12-16T14:18:43.912Z,55.43
2022-12-16T14:21:31.658Z,52.36
2022-12-16T14:24:26.800Z,52.99
2022-12-16T14:27:13.076Z,53.73
2022-12-16T14:30:12.551Z,52.57
2022-12-16T14:32:58.716Z,55.98
2022-12-16T14:35:45.652Z,54.66
2022-12-16T14:38:40.620Z,53.43
2022-12-16T14:41:30.111Z,51.84
2022-12-16T14:44:16.583Z,50.63
2022-12-16T14:47:02.423Z,50.90
2022-12-16T14:49:48.667Z,51.45
2022-12-16T14:52:38.501Z,51.34
2022-12-16T14:55:35.000Z,51.59
2022-12-16T14:58:39.327Z,49.94
2022-12-16T15:01:33.193Z,50.91
2022-12-16T15:04:19.186Z,51.73
2022-12-16T15:07:06.565Z,50.93
2022-12-16T15:09:53.078Z,52.50
2022-12-16T15:12:42.502Z,51.18
2022-12-16T15:15:32.174Z,50.81
2022-12-16T15:18:18.250Z,53.69
2022-12-16T15:21:13.487Z,51.46
2022-12-16T15:24:00.299Z,53.23
2022-12-16T15:26:47.162Z,53.55
2022-12-16T15:29:51.532Z,54.23
2022-12-16T15:32:43.470Z,53.63
2022-12-16T15:35:30.123Z,53.50
2022-12-16T15:38:26.275Z,53.96
2022-12-16T15:41:12.357Z,55.95
2022-12-16T15:43:58.789Z,52.51
2022-12-16T15:46:48.329Z,51.36
2022-12-16T15:49:37.403Z,54.71
2022-12-16T15:52:39.877Z,55.81
2022-12-16T15:55:41.265Z,56.49
2022-12-16T15:58:32.232Z,57.11
2022-12-16T16:01:18.455Z,54.35
2022-12-16T16:04:08.933Z,55.14
2022-12-16T16:06:55.021Z,55.94
2022-12-16T16:09:48.330Z,57.93
2022-12-16T16:12:34.825Z,55.77
2022-12-16T16:15:20.953Z,54.85
2022-12-16T16:18:12.907Z,53.24
2022-12-16T16:21:04.169Z,53.23
2022-12-16T16:23:50.051Z,56.86
2022-12-16T16:26:36.760Z,54.84
2022-12-16T16:29:22.685Z,54.41
2022-12-16T16:32:09.025Z,56.89
2022-12-16T16:34:55.246Z,59.30
2022-12-16T16:37:41.179Z,56.45
2022-12-16T16:40:33.647Z,55.93
2022-12-16T16:43:19.790Z,55.95
2022-12-16T16:46:11.320Z,55.40
2022-12-16T16:48:59.220Z,57.92
2022-12-16T16:51:46.108Z,59.44
2022-12-16T16:54:32.090Z,58.28
2022-12-16T16:57:21.216Z,58.55
2022-12-16T17:00:07.641Z,57.40
2022-12-16T17:02:53.873Z,59.08
2022-12-16T17:05:39.970Z,57.19
2022-12-16T17:08:25.869Z,55.14
2022-12-16T17:11:11.984Z,58.22
2022-12-16T17:13:58.005Z,60.45
2022-12-16T17:16:43.874Z,56.93
2022-12-16T17:19:29.570Z,56.28
2022-12-16T17:22:15.685Z,58.97
2022-12-16T17:25:01.604Z,57.34
2022-12-16T17:27:47.819Z,58.03
2022-12-16T17:30:43.318Z,58.07
2022-12-16T17:33:33.775Z,58.90
2022-12-16T17:36:20.158Z,60.84
2022-12-16T17:39:06.620Z,58.67
2022-12-16T17:41:53.264Z,58.90
2022-12-16T17:44:39.845Z,58.62
2022-12-16T17:47:25.824Z,57.35
2022-12-16T17:50:12.356Z,58.46
2022-12-16T17:52:58.039Z,57.88
2022-12-16T17:55:44.032Z,59.03
2022-12-16T17:58:31.082Z,59.04
2022-12-16T18:01:20.811Z,59.54
2022-12-16T18:04:07.243Z,60.17
2022-12-16T18:06:53.522Z,57.92
2022-12-16T18:09:39.662Z,59.13
2022-12-16T18:12:25.540Z,59.42
2022-12-16T18:15:12.032Z,59.05
2022-12-16T18:17:57.836Z,62.05
2022-12-16T18:20:44.096Z,61.01
2022-12-16T18:23:29.794Z,61.02
2022-12-16T18:26:16.752Z,59.90
2022-12-16T18:29:02.987Z,57.91
2022-12-16T18:31:49.975Z,59.24
2022-12-16T18:34:36.190Z,60.09
2022-12-16T18:37:22.576Z,56.95
2022-12-16T18:40:08.566Z,57.20
2022-12-16T18:42:54.894Z,58.31
2022-12-16T18:45:40.890Z,57.55
2022-12-16T18:48:28.892Z,56.33
2022-12-16T18:51:15.735Z,60.84
2022-12-16T18:54:02.076Z,59.14
2022-12-16T18:56:48.592Z,57.38
2022-12-16T18:59:35.553Z,58.71
2022-12-16T19:02:22.002Z,59.14
2022-12-16T19:05:09.231Z,58.96
2022-12-16T19:07:55.585Z,60.21
2022-12-16T19:10:42.428Z,59.40
2022-12-16T19:13:31.368Z,56.82
2022-12-16T19:16:17.672Z,58.62
2022-12-16T19:19:03.464Z,58.36
2022-12-16T19:21:56.260Z,57.07
2022-12-16T19:24:43.175Z,57.49
2022-12-16T19:27:29.698Z,59.88
2022-12-16T19:30:15.936Z,57.67
2022-12-16T19:33:05.149Z,58.66
2022-12-16T19:35:53.704Z,59.39
2022-12-16T19:38:39.772Z,58.17
2022-12-16T19:41:29.770Z,60.24
2022-12-16T19:44:16.433Z,60.12
2022-12-16T19:47:04.189Z,62.89
2022-12-16T19:49:50.127Z,58.10
2022-12-16T19:52:35.969Z,58.79
2022-12-16T19:55:22.221Z,59.27
2022-12-16T19:58:08.529Z,58.59
2022-12-16T20:00:56.029Z,57.14
2022-12-16T20:03:42.981Z,58.40
2022-12-16T20:06:29.038Z,59.05
2022-12-16T20:09:15.282Z,56.23
2022-12-16T20:12:01.441Z,58.85
2022-12-16T20:14:48.563Z,61.02
2022-12-16T20:17:34.932Z,62.60
2022-12-16T20:20:24.493Z,61.74
2022-12-16T20:23:10.562Z,61.87
2022-12-16T20:25:56.949Z,61.23
2022-12-16T20:28:43.117Z,61.76
2022-12-16T20:31:29.186Z,62.20
2022-12-16T20:34:15.800Z,62.28
2022-12-16T20:37:03.022Z,61.24
2022-12-16T20:39:56.193Z,59.77
2022-12-16T20:42:47.054Z,60.79
2022-12-16T20:45:33.769Z,60.57
2022-12-16T20:48:23.565Z,64.07
2022-12-16T20:51:21.046Z,60.94
2022-12-16T20:54:10.696Z,61.51
2022-12-16T20:56:56.489Z,64.02
2022-12-16T20:59:42.705Z,62.86
2022-12-16T21:02:33.653Z,61.99
2022-12-16T21:05:20.998Z,61.65
2022-12-16T21:08:07.194Z,60.67
2022-12-16T21:13:59.060Z,64.32
2022-12-16T21:16:46.741Z,61.61
2022-12-16T21:19:33.844Z,64.22
2022-12-16T21:22:20.317Z,64.02
2022-12-16T21:25:06.445Z,63.91
2022-12-16T21:27:52.759Z,62.83
2022-12-16T21:30:38.632Z,65.16
2022-12-16T21:33:24.871Z,62.20
2022-12-16T21:36:11.092Z,61.18
2022-12-16T21:38:57.307Z,63.55
2022-12-16T21:41:43.307Z,62.12
2022-12-16T21:44:29.296Z,59.68
2022-12-16T21:47:15.109Z,63.19
2022-12-16T21:50:01.513Z,60.99
2022-12-16T21:52:46.907Z,59.38
2022-12-16T21:55:33.129Z,59.41
2022-12-16T21:58:19.036Z,60.21
2022-12-16T22:01:12.180Z,59.03
2022-12-16T22:03:58.297Z,58.87
2022-12-16T22:06:48.415Z,60.15
2022-12-16T22:09:35.352Z,59.38
2022-12-16T22:12:21.294Z,61.27
2022-12-16T22:15:07.151Z,63.85
2022-12-16T22:17:57.978Z,62.26
2022-12-16T22:20:44.674Z,62.68
2022-12-16T22:23:30.248Z,60.94
2022-12-16T22:26:17.104Z,61.53
2022-12-16T22:29:03.032Z,61.26
2022-12-16T22:31:49.288Z,61.80
2022-12-16T22:34:35.209Z,61.40
2022-12-16T22:37:21.396Z,64.80
2022-12-16T22:40:07.214Z,63.57
2022-12-16T22:42:53.620Z,62.74
2022-12-16T22:45:42.187Z,58.96
2022-12-16T22:48:29.793Z,59.14
2022-12-16T22:51:15.463Z,61.35
2022-12-16T22:54:01.529Z,60.79
2022-12-16T22:56:56.513Z,62.43
2022-12-16T22:59:42.412Z,62.56
2022-12-16T23:02:28.174Z,60.54
2022-12-16T23:05:14.323Z,60.46
2022-12-16T23:08:00.155Z,61.74
2022-12-16T23:10:46.483Z,60.05
2022-12-16T23:13:32.394Z,62.96
2022-12-16T23:16:18.206Z,61.04
2022-12-16T23:19:03.869Z,61.09
2022-12-16T23:21:49.945Z,59.04
2022-12-16T23:24:35.997Z,63.27
2022-12-16T23:27:22.185Z,63.28
2022-12-16T23:30:07.873Z,61.45
2022-12-16T23:32:54.119Z,60.93
2022-12-16T23:35:42.448Z,62.84
2022-12-16T23:38:28.790Z,60.22
2022-12-16T23:41:15.178Z,59.75
2022-12-16T23:44:01.111Z,61.20
2022-12-16T23:46:48.200Z,63.02
2022-12-16T23:49:34.325Z,64.24
2022-12-16T23:52:20.135Z,63.97
2022-12-16T23:55:06.296Z,66.00
2022-12-16T23:57:52.287Z,65.19
